MST,Max TemperatureF,Mean TemperatureF,Min TemperatureF,Max Dew PointF,MeanDew PointF,Min DewpointF,Max Humidity, Mean Humidity, Min Humidity, Max Sea Level PressureIn, Mean Sea Level PressureIn, Min Sea Level PressureIn, Max VisibilityMiles, Mean VisibilityMiles, Min VisibilityMiles, Max Wind SpeedMPH, Mean Wind SpeedMPH, Max Gust SpeedMPH,PrecipitationIn, CloudCover, Events, WindDirDegrees
2013-11-1,55,40,24,28,25,20,88,60,32,30.31,30.24,30.16,10,10,10,17,8,25,0.00,0,,39
2013-11-2,62,42,21,27,24,18,88,56,23,30.34,30.17,29.95,10,10,10,14,5,16,0.00,0,,115
2013-11-3,62,46,29,28,23,15,75,46,17,29.93,29.82,29.71,10,10,10,24,8,29,0.00,2,,161
2013-11-4,53,38,23,31,24,17,88,62,35,29.97,29.87,29.82,10,10,10,16,4,20,T,4,Rain,155
2013-11-5,45,34,22,22,14,6,69,47,24,30.31,30.09,29.87,10,10,10,17,9,24,0.00,2,,335
2013-11-6,51,33,14,16,12,4,74,47,19,30.49,30.43,30.33,10,10,10,14,5,16,0.00,0,,60
2013-11-7,56,37,17,21,17,14,84,53,22,30.58,30.41,30.24,10,10,10,13,4,16,0.00,0,,57
2013-11-8,61,42,22,23,19,12,75,45,15,30.29,30.16,30.06,10,10,10,16,5,19,0.00,0,,63
2013-11-9,62,41,20,22,17,15,77,47,17,30.30,30.21,30.14,10,10,10,12,5,15,0.00,0,,68
2013-11-10,63,41,19,22,18,15,77,47,17,30.40,30.30,30.22,10,10,10,13,5,16,0.00,0,,96
2013-11-11,64,43,22,23,20,16,81,51,20,30.41,30.33,30.25,10,10,10,17,7,22,0.00,0,,72
2013-11-12,65,44,23,24,21,16,74,47,19,30.55,30.45,30.39,10,10,10,15,6,18,0.00,0,,110
2013-11-13,57,40,22,31,26,18,88,62,35,30.47,30.31,30.11,10,10,10,14,4,16,0.00,0,,91
2013-11-14,58,40,22,29,24,17,85,58,30,30.17,30.04,29.90,10,10,10,18,7,21,0.00,0,,47
2013-11-15,60,40,20,41,32,17,100,66,32,29.89,29.74,29.59,10,8,2,31,6,40,0.24,6,Rain-Thunderstorm,161
2013-11-16,49,40,31,38,34,30,100,77,53,29.75,29.66,29.60,10,10,10,21,8,28,T,6,Rain,221
2013-11-17,52,40,28,34,31,26,92,68,44,30.20,30.03,29.78,10,10,10,15,6,19,0.00,3,,50
2013-11-18,55,39,22,31,27,20,96,67,38,30.32,30.22,30.13,10,10,9,10,4,13,0.00,0,,91
2013-11-19,55,40,25,36,30,23,92,68,44,30.12,29.99,29.89,10,10,10,14,4,17,0.00,1,,74
2013-11-20,52,40,27,40,35,25,93,73,52,29.96,29.91,29.82,10,9,4,14,4,17,0.06,5,Rain,102
2013-11-21,49,44,39,41,39,38,100,88,76,30.13,29.99,29.87,10,8,2,14,3,18,0.20,8,Rain,75
2013-11-22,44,41,38,40,38,35,100,88,76,30.20,30.12,30.04,10,9,4,18,5,24,0.35,8,Rain,67
2013-11-23,50,42,33,37,35,31,100,81,61,30.25,30.17,30.08,10,8,1,29,9,39,0.13,8,Rain-Snow,183
2013-11-24,36,32,28,31,28,26,100,88,75,30.19,30.13,30.10,10,5,1,20,9,24,0.02,8,Snow,214
2013-11-25,45,36,27,34,30,26,100,83,65,30.34,30.15,30.05,10,9,4,17,7,24,T,2,Snow,283
2013-11-26,42,33,24,31,28,23,100,82,64,30.46,30.40,30.34,10,10,9,8,3,10,0.00,5,,101
2013-11-27,45,34,22,34,27,20,100,79,58,30.40,30.31,30.18,10,10,8,13,4,16,0.00,0,,85
2013-11-28,48,34,20,34,27,19,100,78,56,30.28,30.22,30.15,10,10,7,14,4,16,0.00,0,,105
2013-11-29,45,33,20,35,27,19,100,81,62,30.42,30.34,30.26,10,5,0,12,3,13,0.00,4,Fog,83
2013-11-30,34,29,24,32,30,26,100,93,85,30.44,30.36,30.31,10,3,0,8,2,9,0.00,8,Fog,119